Terminal Aerodrome Forecast
Issued by NWS Charleston, WV

Current Version | Previous Version | Graphics & Text | Print | Product List | Glossary On
Versions: 1 2 3 4 5 6 7 8 9 10 11 12 13 14 15 16 17 18 19 20 21 22 23 24 25 26 27 28
000
FTUS41 KRLX 230539
TAFEKN
TAF
KEKN 230539Z 2306/2406 26007KT P6SM SHRA SCT018 BKN023 OVC040
     FM230800 29004KT 5SM SHRA BR OVC005
     FM231400 30004KT P6SM BKN020
     FM232000 30005KT P6SM SCT080
     FM240400 00000KT 4SM BR FEW080=

USA.gov is the U.S. government's official web portal to all federal, state and local government web resources and services.